Time;durP1;ratioP1;P1;durP2;ratioP2;P2;SDS_P1;SDS_P2;PMS_P1;PMS_P2;Temp;Humidity;BMP_temperature;BMP_pressure;BME280_temperature;BME280_humidity;BME280_pressure;Samples;Min_cycle;Max_cycle;Signal;HPM_P1;HPM_P2
2024/02/02 00:02:02;;;;;;;17.33;3.80;;;5.50;99.90;;;;;;4965588;28;20047;-86
2024/02/02 00:04:28;;;;;;;22.83;5.07;;;5.50;99.90;;;;;;4948329;28;20032;-89
2024/02/02 00:06:54;;;;;;;17.98;3.90;;;5.50;99.90;;;;;;4948056;28;20035;-87
2024/02/02 00:09:21;;;;;;;19.95;4.88;;;5.50;99.90;;;;;;4965489;28;20514;-87
2024/02/02 00:11:48;;;;;;;19.48;4.35;;;5.50;99.90;;;;;;4951094;28;20047;-92
2024/02/02 00:14:14;;;;;;;19.25;5.28;;;5.50;99.90;;;;;;4969115;28;20027;-91
2024/02/02 00:16:41;;;;;;;19.58;5.53;;;5.50;99.90;;;;;;4936410;28;20059;-84
2024/02/02 00:19:07;;;;;;;24.65;6.03;;;5.50;99.90;;;;;;4939127;28;20051;-86
2024/02/02 00:21:34;;;;;;;21.85;5.70;;;5.50;99.90;;;;;;4939217;28;20039;-91
2024/02/02 00:24:00;;;;;;;18.58;4.82;;;5.50;99.90;;;;;;4954382;28;20046;-90
2024/02/02 00:26:27;;;;;;;26.55;6.50;;;5.50;99.90;;;;;;4968904;28;20106;-88
2024/02/02 00:28:53;;;;;;;22.73;5.93;;;5.50;99.90;;;;;;4968981;28;20039;-86
2024/02/02 00:31:21;;;;;;;20.50;5.63;;;5.50;99.90;;;;;;4937125;28;20422;-89
2024/02/02 00:33:49;;;;;;;22.05;6.88;;;5.50;99.90;;;;;;4967758;28;20042;-91
2024/02/02 00:36:16;;;;;;;17.25;5.22;;;5.50;99.90;;;;;;4966109;28;20039;-91
2024/02/02 00:38:42;;;;;;;18.75;6.15;;;5.50;99.90;;;;;;4951768;28;20043;-86
2024/02/02 00:41:09;;;;;;;24.70;6.80;;;5.50;99.90;;;;;;4952237;28;20035;-90
2024/02/02 00:43:35;;;;;;;21.05;6.32;;;5.50;99.90;;;;;;4968160;28;20091;-89
2024/02/02 00:46:02;;;;;;;25.08;7.97;;;5.50;99.90;;;;;;4968072;28;20486;-88
2024/02/02 00:48:28;;;;;;;17.63;6.22;;;5.50;99.90;;;;;;4949554;28;20370;-92
2024/02/02 00:50:55;;;;;;;24.48;8.15;;;5.60;99.90;;;;;;4967435;28;20035;-88
2024/02/02 00:53:22;;;;;;;28.88;9.30;;;5.50;99.90;;;;;;4966880;28;20475;-89
2024/02/02 00:55:48;;;;;;;20.77;6.97;;;5.60;99.90;;;;;;4952890;28;20478;-82
2024/02/02 00:58:14;;;;;;;25.50;7.47;;;5.50;99.90;;;;;;4935258;28;20051;-88
2024/02/02 01:00:41;;;;;;;29.45;7.60;;;5.60;99.90;;;;;;4967024;28;20499;-92
2024/02/02 01:03:07;;;;;;;24.73;8.77;;;5.60;99.90;;;;;;4968124;28;20521;-82
2024/02/02 01:05:33;;;;;;;26.00;8.45;;;5.60;99.90;;;;;;4951446;28;20046;-83
2024/02/02 01:08:00;;;;;;;20.23;7.40;;;5.60;99.90;;;;;;4968108;28;20050;-89
2024/02/02 01:10:26;;;;;;;25.02;6.78;;;5.60;99.90;;;;;;4937702;28;20031;-88
2024/02/02 01:12:53;;;;;;;25.27;7.43;;;5.60;99.90;;;;;;4966775;28;20039;-90
2024/02/02 01:15:19;;;;;;;23.85;7.20;;;5.60;99.90;;;;;;4967776;28;20376;-85
2024/02/02 01:17:46;;;;;;;22.20;7.63;;;5.60;99.90;;;;;;4952543;28;20047;-88
2024/02/02 01:20:14;;;;;;;23.33;8.18;;;5.60;99.90;;;;;;4935625;28;20046;-90
2024/02/02 01:22:41;;;;;;;24.50;7.97;;;5.70;99.90;;;;;;4968148;28;20039;-91
2024/02/02 01:25:17;;;;;;;19.85;8.05;;;5.60;99.90;;;;;;4968667;28;20483;-87
2024/02/02 01:27:44;;;;;;;27.45;8.30;;;5.70;99.90;;;;;;4968639;28;20042;-92
2024/02/02 01:30:13;;;;;;;19.73;7.60;;;5.60;99.90;;;;;;4950044;28;20042;-89
2024/02/02 01:32:40;;;;;;;25.15;8.77;;;5.70;99.90;;;;;;4968481;28;20042;-87
2024/02/02 01:35:07;;;;;;;25.70;8.23;;;5.70;99.90;;;;;;4948810;28;20753;-89
2024/02/02 01:37:33;;;;;;;22.98;8.38;;;5.70;99.90;;;;;;4952987;28;20102;-87
2024/02/02 01:40:00;;;;;;;18.75;8.20;;;5.70;99.90;;;;;;4936748;28;20039;-91
2024/02/02 01:42:26;;;;;;;21.98;7.30;;;5.70;99.90;;;;;;4954085;28;20051;-89
2024/02/02 01:44:52;;;;;;;24.13;8.70;;;5.70;99.90;;;;;;4954805;28;20031;-87
2024/02/02 01:47:19;;;;;;;19.20;7.15;;;5.70;99.90;;;;;;4935968;28;20046;-90
2024/02/02 01:49:45;;;;;;;23.88;8.00;;;5.70;99.90;;;;;;4952204;28;20521;-85
2024/02/02 01:52:12;;;;;;;21.50;7.10;;;5.70;99.90;;;;;;4951441;28;20046;-91
2024/02/02 01:54:38;;;;;;;24.55;8.30;;;5.80;99.90;;;;;;4952881;28;20410;-85
2024/02/02 01:57:05;;;;;;;22.58;7.10;;;5.80;99.90;;;;;;4950529;28;20047;-88
2024/02/02 01:59:32;;;;;;;31.02;9.32;;;5.80;99.90;;;;;;4952481;28;20043;-82
2024/02/02 02:01:58;;;;;;;27.10;6.97;;;5.80;99.90;;;;;;4966298;28;20315;-90
2024/02/02 02:04:25;;;;;;;21.27;7.18;;;5.80;99.90;;;;;;4922348;29;20039;-90
2024/02/02 02:06:51;;;;;;;27.92;7.75;;;5.80;99.90;;;;;;4950332;28;20062;-88
2024/02/02 02:09:18;;;;;;;37.67;8.50;;;5.80;99.90;;;;;;4938210;28;20043;-90
2024/02/02 02:11:44;;;;;;;27.00;7.30;;;5.80;99.90;;;;;;4951105;28;20411;-87
2024/02/02 02:14:11;;;;;;;25.42;7.45;;;5.80;99.90;;;;;;4953158;28;20039;-88
2024/02/02 02:16:37;;;;;;;28.67;6.40;;;5.80;99.90;;;;;;4965071;28;20047;-88
2024/02/02 02:19:05;;;;;;;18.25;6.00;;;5.80;99.90;;;;;;4954355;28;20046;-87
2024/02/02 02:21:31;;;;;;;15.20;4.72;;;5.80;99.90;;;;;;4953392;28;20404;-85
2024/02/02 02:23:58;;;;;;;18.38;4.93;;;5.80;99.90;;;;;;4967088;28;20042;-86
2024/02/02 02:26:27;;;;;;;22.10;5.75;;;5.80;99.90;;;;;;4968678;28;20038;-88
2024/02/02 02:28:54;;;;;;;15.70;5.10;;;5.80;99.90;;;;;;4967578;28;20043;-89
2024/02/02 02:31:20;;;;;;;20.13;6.40;;;5.80;99.90;;;;;;4951594;28;20039;-86
2024/02/02 02:33:46;;;;;;;26.77;6.88;;;5.80;99.90;;;;;;4951364;28;20631;-90
2024/02/02 02:36:14;;;;;;;21.98;5.88;;;5.80;99.90;;;;;;4965660;28;20035;-88
2024/02/02 02:38:40;;;;;;;18.58;6.00;;;5.80;99.90;;;;;;4954051;28;20039;-83
2024/02/02 02:41:06;;;;;;;17.50;5.80;;;5.80;99.90;;;;;;4919288;28;20049;-88
2024/02/02 02:43:33;;;;;;;19.58;6.60;;;5.80;99.90;;;;;;4962834;28;20036;-89
2024/02/02 02:45:59;;;;;;;21.85;5.90;;;5.90;99.90;;;;;;4936136;28;20039;-84
2024/02/02 02:48:26;;;;;;;21.50;5.70;;;5.80;99.90;;;;;;4967603;28;20046;-89
2024/02/02 02:50:53;;;;;;;23.55;6.75;;;5.90;99.90;;;;;;4966157;28;23127;-89
2024/02/02 02:53:19;;;;;;;21.95;5.78;;;5.90;99.90;;;;;;4966429;28;20501;-85
2024/02/02 02:55:46;;;;;;;20.20;6.10;;;5.90;99.90;;;;;;4918728;28;20031;-91
2024/02/02 02:58:12;;;;;;;22.42;6.82;;;5.90;99.90;;;;;;4935945;28;20058;-91
2024/02/02 03:00:39;;;;;;;32.95;7.93;;;5.90;99.90;;;;;;4968253;28;20118;-87
2024/02/02 03:03:05;;;;;;;27.25;7.95;;;5.90;99.90;;;;;;4965450;28;20050;-83
2024/02/02 03:05:32;;;;;;;22.90;7.50;;;5.90;99.90;;;;;;4950088;28;20031;-88
2024/02/02 03:07:58;;;;;;;21.45;6.68;;;5.90;99.90;;;;;;4951223;28;20046;-86
2024/02/02 03:10:28;;;;;;;26.90;7.85;;;5.90;99.90;;;;;;4965984;28;20027;-87
2024/02/02 03:12:55;;;;;;;27.83;8.88;;;5.90;99.90;;;;;;4965340;28;20047;-90
2024/02/02 03:15:21;;;;;;;26.17;8.35;;;5.90;99.90;;;;;;4935820;28;20054;-88
2024/02/02 03:17:48;;;;;;;25.65;8.00;;;5.90;99.90;;;;;;4932011;28;20043;-91
2024/02/02 03:20:15;;;;;;;28.42;7.50;;;5.90;99.90;;;;;;4950819;28;20039;-89
2024/02/02 03:22:42;;;;;;;20.02;7.55;;;5.90;99.90;;;;;;4965390;28;20039;-88
2024/02/02 03:25:09;;;;;;;20.63;7.45;;;5.80;99.90;;;;;;4938042;28;20035;-85
2024/02/02 03:27:35;;;;;;;26.35;8.70;;;5.80;99.90;;;;;;4983169;28;20050;-87
2024/02/02 03:30:03;;;;;;;22.00;8.45;;;5.80;99.90;;;;;;4967460;28;20046;-89
2024/02/02 03:32:30;;;;;;;24.52;8.40;;;5.70;99.90;;;;;;4947758;28;20043;-89
2024/02/02 03:34:56;;;;;;;22.88;8.32;;;5.70;99.90;;;;;;4949801;28;20039;-88
2024/02/02 03:37:23;;;;;;;31.60;11.05;;;5.70;99.90;;;;;;4952102;28;20039;-86
2024/02/02 03:39:49;;;;;;;24.17;9.45;;;5.60;99.90;;;;;;4950829;28;20039;-90
2024/02/02 03:42:15;;;;;;;30.75;9.98;;;5.60;99.90;;;;;;4950801;28;20065;-85
2024/02/02 03:44:42;;;;;;;20.10;9.60;;;5.60;99.90;;;;;;4952617;28;20035;-90
2024/02/02 03:47:08;;;;;;;22.92;9.98;;;5.60;99.90;;;;;;4970527;28;20042;-90
2024/02/02 03:49:37;;;;;;;28.10;10.60;;;5.60;99.90;;;;;;4939434;28;20054;-87
2024/02/02 03:52:07;;;;;;;23.52;9.35;;;5.60;99.90;;;;;;4969793;28;20042;-88
2024/02/02 03:54:34;;;;;;;26.33;10.88;;;5.50;99.90;;;;;;4986070;28;20031;-87
2024/02/02 03:57:03;;;;;;;27.42;10.68;;;5.50;99.90;;;;;;4938228;28;20519;-81
2024/02/02 03:59:29;;;;;;;33.97;11.00;;;5.50;99.90;;;;;;4969536;28;20035;-81
2024/02/02 04:01:56;;;;;;;26.52;11.48;;;5.50;99.90;;;;;;4984937;28;20454;-88
2024/02/02 04:04:23;;;;;;;23.52;10.98;;;5.50;99.90;;;;;;4968701;28;20039;-88
2024/02/02 04:06:49;;;;;;;31.15;12.35;;;5.50;99.90;;;;;;4967027;28;20043;-88
2024/02/02 04:09:16;;;;;;;28.40;11.57;;;5.50;99.90;;;;;;4954373;28;20031;-84
2024/02/02 04:11:42;;;;;;;26.17;10.88;;;5.50;99.90;;;;;;4954062;28;20410;-87
2024/02/02 04:14:08;;;;;;;27.95;10.68;;;5.50;99.90;;;;;;4953117;28;20036;-85
2024/02/02 04:16:35;;;;;;;23.85;11.52;;;5.50;99.90;;;;;;4968618;28;20044;-90
2024/02/02 04:19:02;;;;;;;24.30;10.40;;;5.50;99.90;;;;;;4968435;28;20197;-87
2024/02/02 04:21:28;;;;;;;26.50;11.13;;;5.50;99.90;;;;;;4970875;28;20578;-88
2024/02/02 04:23:54;;;;;;;27.90;10.95;;;5.50;99.90;;;;;;4970027;28;20031;-86
2024/02/02 04:26:21;;;;;;;31.52;11.13;;;5.50;99.90;;;;;;4938333;28;20039;-88
2024/02/02 04:28:48;;;;;;;29.45;10.15;;;5.50;99.90;;;;;;4969346;28;20051;-85
2024/02/02 04:31:15;;;;;;;24.10;10.73;;;5.50;99.90;;;;;;4953608;28;20035;-86
2024/02/02 04:33:41;;;;;;;30.08;10.98;;;5.50;99.90;;;;;;4937121;28;21184;-85
2024/02/02 04:36:09;;;;;;;31.45;9.85;;;5.50;99.90;;;;;;4983296;28;20483;-84
2024/02/02 04:38:35;;;;;;;23.52;9.10;;;5.50;99.90;;;;;;4953126;28;20047;-83
2024/02/02 04:41:02;;;;;;;27.00;10.00;;;5.50;99.90;;;;;;4937222;28;20031;-89
2024/02/02 04:43:28;;;;;;;27.05;9.30;;;5.60;99.90;;;;;;4937185;28;20487;-88
2024/02/02 04:45:54;;;;;;;24.50;10.05;;;5.60;99.90;;;;;;4968104;28;20046;-83
2024/02/02 04:48:21;;;;;;;26.30;9.45;;;5.70;99.90;;;;;;4934315;28;20043;-84
2024/02/02 04:50:47;;;;;;;23.00;8.77;;;5.60;99.90;;;;;;4964775;28;20139;-88
2024/02/02 04:53:14;;;;;;;33.63;10.20;;;5.60;99.90;;;;;;4983371;28;20062;-85
2024/02/02 04:55:40;;;;;;;26.90;9.30;;;5.70;99.90;;;;;;4951568;28;20513;-85
2024/02/02 04:58:06;;;;;;;24.33;9.13;;;5.60;99.90;;;;;;4952469;28;20047;-81
2024/02/02 05:00:33;;;;;;;25.95;10.00;;;5.60;99.90;;;;;;4952335;28;20031;-87
2024/02/02 05:02:59;;;;;;;22.70;7.68;;;5.60;99.90;;;;;;4952514;28;20039;-85
2024/02/02 05:05:25;;;;;;;22.75;8.40;;;5.60;99.90;;;;;;4965968;28;20038;-86
2024/02/02 05:07:52;;;;;;;22.15;9.02;;;5.60;99.90;;;;;;4967639;28;20477;-85
2024/02/02 05:10:18;;;;;;;23.00;8.65;;;5.60;99.90;;;;;;4953315;28;20043;-85
2024/02/02 05:12:45;;;;;;;22.80;7.85;;;5.60;99.90;;;;;;4969025;28;20035;-85
2024/02/02 05:15:11;;;;;;;25.67;8.77;;;5.60;99.90;;;;;;4950741;28;20525;-87
2024/02/02 05:17:38;;;;;;;22.10;7.22;;;5.50;99.90;;;;;;4966115;28;20096;-84
2024/02/02 05:20:05;;;;;;;31.60;8.77;;;5.50;99.90;;;;;;4954689;28;20031;-86
2024/02/02 05:22:31;;;;;;;21.17;7.00;;;5.50;99.90;;;;;;4970393;28;20054;-83
2024/02/02 05:24:58;;;;;;;28.38;9.35;;;5.50;99.90;;;;;;4954610;28;20039;-83
2024/02/02 05:27:24;;;;;;;17.45;6.32;;;5.50;99.90;;;;;;4966957;28;20046;-86
2024/02/02 05:29:50;;;;;;;19.95;7.53;;;5.50;99.90;;;;;;4951079;28;20339;-87
2024/02/02 05:32:17;;;;;;;23.70;7.07;;;5.50;99.90;;;;;;4966464;28;20043;-85
2024/02/02 05:34:44;;;;;;;21.67;7.43;;;5.50;99.90;;;;;;4936462;28;20454;-81
2024/02/02 05:37:10;;;;;;;17.35;6.18;;;5.50;99.90;;;;;;4950426;28;20035;-83
2024/02/02 05:39:36;;;;;;;18.35;6.43;;;5.50;99.90;;;;;;4952869;28;20047;-84
2024/02/02 05:42:03;;;;;;;26.77;7.03;;;5.50;99.90;;;;;;4948669;28;20074;-84
2024/02/02 05:44:30;;;;;;;20.42;7.32;;;5.50;99.90;;;;;;4968926;28;20217;-87
2024/02/02 05:46:56;;;;;;;20.00;7.07;;;5.50;99.90;;;;;;4966708;28;20054;-86
2024/02/02 05:49:22;;;;;;;18.25;5.80;;;5.50;99.90;;;;;;4937136;28;20036;-87
2024/02/02 05:51:49;;;;;;;27.05;6.65;;;5.50;99.90;;;;;;4966725;28;20513;-84
2024/02/02 05:54:15;;;;;;;15.32;5.03;;;5.50;99.90;;;;;;4968160;28;20042;-87
2024/02/02 05:56:41;;;;;;;14.55;4.13;;;5.50;99.90;;;;;;4965853;28;20509;-86
2024/02/02 05:59:08;;;;;;;23.10;6.07;;;5.50;99.90;;;;;;4964704;28;20050;-85
2024/02/02 06:01:34;;;;;;;17.48;4.72;;;5.50;99.90;;;;;;4936730;28;20039;-86
2024/02/02 06:04:01;;;;;;;21.67;5.80;;;5.50;99.90;;;;;;4977902;28;20039;-85
2024/02/02 06:06:27;;;;;;;19.10;5.28;;;5.50;99.90;;;;;;4965909;28;20615;-83
2024/02/02 06:08:54;;;;;;;19.17;5.88;;;5.50;99.90;;;;;;4964760;28;20040;-84
2024/02/02 06:11:20;;;;;;;17.70;4.72;;;5.50;99.90;;;;;;4950987;28;20046;-83
2024/02/02 06:13:46;;;;;;;17.98;4.90;;;5.40;99.90;;;;;;4965928;28;20145;-86
2024/02/02 06:16:13;;;;;;;17.92;4.50;;;5.30;99.90;;;;;;4951042;28;20045;-85
2024/02/02 06:18:39;;;;;;;16.85;4.13;;;5.40;99.90;;;;;;4966308;28;20466;-88
2024/02/02 06:21:06;;;;;;;21.35;4.93;;;5.40;99.90;;;;;;4950721;28;20062;-85
2024/02/02 06:23:33;;;;;;;18.70;4.80;;;5.40;99.90;;;;;;4952610;28;20043;-86
2024/02/02 06:25:59;;;;;;;18.45;4.70;;;5.40;99.90;;;;;;4952090;28;20506;-87
2024/02/02 06:28:25;;;;;;;21.80;4.97;;;5.40;99.90;;;;;;4947251;28;20042;-88
2024/02/02 06:30:52;;;;;;;20.02;5.72;;;5.50;99.90;;;;;;4935392;28;20031;-84
2024/02/02 06:33:18;;;;;;;21.02;5.22;;;5.50;99.90;;;;;;4965401;28;20483;-86
2024/02/02 06:35:44;;;;;;;16.42;4.93;;;5.50;99.90;;;;;;4947871;28;20042;-85
2024/02/02 06:38:11;;;;;;;20.42;4.55;;;5.50;99.90;;;;;;4948917;28;20509;-87
2024/02/02 06:40:38;;;;;;;28.05;5.80;;;5.50;99.90;;;;;;4929312;28;20047;-87
2024/02/02 06:43:05;;;;;;;18.05;4.50;;;5.40;99.90;;;;;;4945519;28;20038;-85
2024/02/02 06:45:31;;;;;;;20.58;4.82;;;5.40;99.90;;;;;;4932588;28;20039;-87
2024/02/02 06:47:58;;;;;;;17.42;4.60;;;5.40;99.90;;;;;;4948247;28;20039;-84
2024/02/02 06:50:25;;;;;;;21.13;5.10;;;5.40;99.90;;;;;;4950080;28;20046;-86
2024/02/02 06:52:51;;;;;;;26.92;6.55;;;5.40;99.90;;;;;;4932921;28;20046;-84
2024/02/02 06:55:18;;;;;;;19.15;5.28;;;5.40;99.90;;;;;;4967338;28;20482;-81
2024/02/02 06:57:45;;;;;;;17.33;4.13;;;5.50;99.90;;;;;;4949117;28;20770;-84
2024/02/02 07:00:14;;;;;;;23.92;5.03;;;5.50;99.90;;;;;;4950747;28;20035;-90
2024/02/02 07:02:42;;;;;;;25.48;6.40;;;5.50;99.90;;;;;;4962965;28;20396;-85
2024/02/02 07:05:12;;;;;;;20.17;4.53;;;5.50;99.90;;;;;;4963608;28;20067;-84
2024/02/02 07:07:40;;;;;;;22.63;5.28;;;5.60;99.90;;;;;;4963080;28;20042;-85
2024/02/02 07:10:15;;;;;;;19.73;4.93;;;5.60;99.90;;;;;;4948863;28;20034;-86
2024/02/02 07:12:59;;;;;;;24.42;5.18;;;5.60;99.90;;;;;;4964110;28;20039;-84
2024/02/02 07:15:32;;;;;;;16.40;4.40;;;5.60;99.90;;;;;;4934055;28;20506;-86
2024/02/02 07:17:59;;;;;;;16.52;4.60;;;5.60;99.90;;;;;;4949221;28;20044;-83
2024/02/02 07:20:25;;;;;;;26.13;6.07;;;5.60;99.90;;;;;;4956287;28;20046;-83
2024/02/02 07:23:03;;;;;;;21.25;5.35;;;5.60;99.90;;;;;;4969143;28;20375;-87
2024/02/02 07:25:37;;;;;;;29.15;6.32;;;5.70;99.90;;;;;;4940205;28;20041;-85
2024/02/02 07:28:05;;;;;;;24.80;6.68;;;5.70;99.90;;;;;;4967027;28;20406;-85
2024/02/02 07:30:44;;;;;;;19.30;5.28;;;5.70;99.90;;;;;;4948296;28;20046;-82
2024/02/02 07:33:22;;;;;;;19.52;5.90;;;5.80;99.90;;;;;;4963554;28;20414;-83
2024/02/02 07:35:49;;;;;;;22.77;6.50;;;5.80;99.90;;;;;;4935827;28;20482;-83
2024/02/02 07:38:46;;;;;;;21.00;7.57;;;5.80;99.90;;;;;;4931259;28;20038;-81
2024/02/02 07:41:14;;;;;;;27.05;7.18;;;5.90;99.90;;;;;;4966430;28;20422;-82
2024/02/02 07:43:41;;;;;;;29.02;7.18;;;5.90;99.90;;;;;;4935212;28;20421;-84
2024/02/02 07:46:08;;;;;;;24.80;7.13;;;6.00;99.90;;;;;;4949923;28;20035;-83
2024/02/02 07:48:36;;;;;;;22.70;7.63;;;6.00;99.90;;;;;;4940625;28;20050;-86
2024/02/02 07:51:02;;;;;;;30.02;8.18;;;6.00;99.90;;;;;;4965389;28;20585;-83
2024/02/02 07:53:29;;;;;;;23.33;7.60;;;6.10;99.90;;;;;;4950524;28;20038;-84
2024/02/02 07:55:55;;;;;;;24.73;8.05;;;6.10;99.90;;;;;;4950541;28;20282;-86
2024/02/02 07:58:22;;;;;;;21.65;7.22;;;6.20;99.90;;;;;;4951496;28;20066;-87
2024/02/02 08:00:49;;;;;;;22.70;8.20;;;6.20;99.90;;;;;;4964604;28;20031;-83
2024/02/02 08:03:15;;;;;;;25.15;8.10;;;6.20;99.90;;;;;;4949493;28;20031;-85
2024/02/02 08:05:42;;;;;;;27.35;11.32;;;6.30;99.90;;;;;;4966082;28;20173;-91
2024/02/02 08:08:08;;;;;;;29.98;10.30;;;6.30;99.90;;;;;;4936742;28;20074;-86
2024/02/02 08:10:35;;;;;;;30.23;10.70;;;6.30;99.90;;;;;;4968525;28;20031;-87
2024/02/02 08:13:01;;;;;;;29.15;11.05;;;6.40;99.90;;;;;;4949079;28;20043;-87
2024/02/02 08:15:28;;;;;;;33.60;12.52;;;6.40;99.90;;;;;;4967100;28;20512;-82
2024/02/02 08:17:54;;;;;;;35.00;13.02;;;6.40;99.90;;;;;;4954450;28;20073;-83
2024/02/02 08:20:20;;;;;;;31.52;13.27;;;6.40;99.90;;;;;;4949275;28;20066;-88
2024/02/02 08:22:47;;;;;;;33.90;14.63;;;6.50;99.90;;;;;;4934349;28;20577;-88
2024/02/02 08:25:14;;;;;;;33.85;14.43;;;6.50;99.90;;;;;;4931511;28;20039;-87
2024/02/02 08:27:40;;;;;;;39.80;16.50;;;6.50;99.90;;;;;;4929828;28;20048;-84
2024/02/02 08:30:07;;;;;;;39.97;14.77;;;6.60;99.90;;;;;;4948687;28;20042;-89
2024/02/02 08:32:35;;;;;;;41.97;17.65;;;6.60;99.90;;;;;;4963964;28;20051;-87
2024/02/02 08:35:01;;;;;;;36.22;15.13;;;6.60;99.90;;;;;;4932697;28;20028;-89
2024/02/02 08:37:28;;;;;;;31.50;12.57;;;6.60;99.90;;;;;;4944808;28;20082;-93
2024/02/02 08:39:56;;;;;;;35.05;13.65;;;6.70;99.90;;;;;;4947181;28;20047;-88
2024/02/02 08:42:23;;;;;;;33.03;15.05;;;6.70;99.90;;;;;;4966273;28;20046;-83
2024/02/02 08:44:55;;;;;;;30.63;16.42;;;6.80;99.90;;;;;;4982331;28;20035;-87
2024/02/02 08:47:23;;;;;;;44.20;17.08;;;6.80;99.90;;;;;;4982536;28;20336;-88
2024/02/02 08:49:59;;;;;;;41.08;16.05;;;6.80;99.90;;;;;;4946807;28;20062;-85
2024/02/02 08:52:33;;;;;;;33.78;14.43;;;6.90;99.90;;;;;;4964939;28;20042;-84
2024/02/02 08:55:02;;;;;;;35.78;14.27;;;6.90;99.90;;;;;;4947258;28;20035;-86
2024/02/02 08:57:32;;;;;;;34.78;13.18;;;6.90;99.90;;;;;;4934813;28;20035;-89
2024/02/02 09:00:13;;;;;;;30.48;15.07;;;6.90;99.90;;;;;;4983210;28;20039;-90
2024/02/02 09:02:59;;;;;;;40.22;13.70;;;7.00;99.90;;;;;;4934011;28;20035;-84
2024/02/02 09:05:27;;;;;;;31.60;13.77;;;7.00;99.90;;;;;;4952726;28;20039;-88
2024/02/02 09:08:17;;;;;;;34.10;14.55;;;7.10;99.90;;;;;;4983452;28;20031;-89
2024/02/02 09:10:44;;;;;;;33.40;12.23;;;7.10;99.90;;;;;;4969420;28;20043;-89
2024/02/02 09:13:23;;;;;;;36.70;13.35;;;7.10;99.90;;;;;;4940739;28;20389;-82
2024/02/02 09:15:49;;;;;;;28.02;11.18;;;7.20;99.90;;;;;;4970759;28;20031;-91
2024/02/02 09:18:37;;;;;;;25.45;11.25;;;7.20;99.90;;;;;;4964847;28;20054;-87
2024/02/02 09:21:08;;;;;;;38.83;12.63;;;7.30;99.90;;;;;;4951515;28;20039;-86
2024/02/02 09:23:35;;;;;;;29.30;14.07;;;7.30;99.90;;;;;;4965788;28;20198;-88
2024/02/02 09:26:45;;;;;;;30.85;12.85;;;7.30;99.90;;;;;;4965186;28;20062;-87
2024/02/02 09:29:12;;;;;;;39.95;13.82;;;7.30;99.90;;;;;;4936117;28;20047;-87
2024/02/02 09:31:38;;;;;;;33.67;13.65;;;7.30;99.90;;;;;;4951787;28;20074;-87
2024/02/02 09:34:09;;;;;;;39.42;15.85;;;7.30;99.90;;;;;;4949931;28;20058;-85
2024/02/02 09:36:38;;;;;;;28.33;13.93;;;7.40;99.90;;;;;;4971423;28;20035;-86
2024/02/02 09:39:09;;;;;;;32.42;14.35;;;7.40;99.90;;;;;;4966085;28;20047;-89
2024/02/02 09:41:45;;;;;;;37.50;14.18;;;7.40;99.90;;;;;;4950200;28;20038;-85
2024/02/02 09:44:41;;;;;;;34.90;15.98;;;7.50;99.90;;;;;;4939750;28;20050;-85
2024/02/02 09:47:24;;;;;;;36.05;15.43;;;7.60;99.90;;;;;;4952734;28;20035;-88
2024/02/02 09:49:58;;;;;;;36.33;15.33;;;7.60;99.90;;;;;;4952840;28;20027;-89
2024/02/02 09:52:31;;;;;;;30.80;12.32;;;7.60;99.90;;;;;;4951845;28;20039;-90
2024/02/02 09:55:16;;;;;;;31.17;14.73;;;7.60;99.90;;;;;;4951994;28;20490;-88
2024/02/02 09:57:55;;;;;;;31.67;14.77;;;7.70;99.90;;;;;;4935037;28;20364;-88
2024/02/02 10:00:40;;;;;;;41.90;16.30;;;7.70;99.90;;;;;;4969215;28;20513;-87
2024/02/02 10:03:45;;;;;;;40.45;15.35;;;7.70;99.90;;;;;;4964290;28;20253;-88
2024/02/02 10:06:19;;;;;;;35.15;14.98;;;7.70;99.90;;;;;;4934781;28;20039;-89
2024/02/02 10:08:57;;;;;;;42.00;15.57;;;7.80;99.90;;;;;;4936959;28;20723;-88
2024/02/02 10:11:35;;;;;;;44.88;17.52;;;7.90;99.90;;;;;;4906149;28;20035;-85
2024/02/02 10:14:05;;;;;;;35.97;16.88;;;7.90;99.90;;;;;;4937696;28;20049;-86
2024/02/02 10:16:44;;;;;;;32.97;13.50;;;8.00;99.90;;;;;;4931992;28;20043;-87
2024/02/02 10:19:41;;;;;;;38.00;15.70;;;8.00;99.90;;;;;;4935332;28;20070;-84
2024/02/02 10:22:13;;;;;;;40.53;15.23;;;8.10;99.90;;;;;;4937391;28;20039;-87
2024/02/02 10:24:57;;;;;;;32.38;17.33;;;8.10;99.90;;;;;;4918729;28;21298;-82
2024/02/02 10:27:58;;;;;;;41.17;15.63;;;8.10;99.90;;;;;;4949911;28;20043;-82
2024/02/02 10:30:51;;;;;;;33.65;17.58;;;8.20;99.90;;;;;;4919262;28;20381;-86
2024/02/02 10:33:52;;;;;;;41.00;17.48;;;8.20;99.90;;;;;;4932479;28;20070;-87
2024/02/02 10:36:37;;;;;;;31.58;14.82;;;8.20;99.90;;;;;;4951437;28;20038;-87
2024/02/02 10:39:25;;;;;;;43.80;16.58;;;8.20;99.90;;;;;;4950335;28;20054;-88
2024/02/02 10:42:07;;;;;;;39.33;16.38;;;8.20;99.90;;;;;;4964576;28;20062;-87
2024/02/02 10:44:55;;;;;;;34.90;15.82;;;8.20;99.90;;;;;;4964241;28;20043;-86
2024/02/02 10:47:30;;;;;;;32.00;16.27;;;8.20;99.90;;;;;;4980912;28;20101;-84
2024/02/02 10:49:59;;;;;;;36.72;14.85;;;8.20;99.90;;;;;;4947488;28;20659;-81
2024/02/02 10:52:41;;;;;;;29.70;14.77;;;8.30;99.90;;;;;;4947999;28;20109;-84
2024/02/02 10:55:13;;;;;;;33.47;15.82;;;8.30;99.90;;;;;;4931943;28;20042;-83
2024/02/02 10:58:03;;;;;;;36.00;16.13;;;8.30;99.90;;;;;;4950479;28;20062;-85
2024/02/02 11:00:37;;;;;;;33.25;14.25;;;8.40;99.90;;;;;;4963063;28;20042;-82
2024/02/02 11:03:37;;;;;;;31.92;15.15;;;8.40;99.90;;;;;;4930709;28;20648;-84
2024/02/02 11:06:38;;;;;;;32.47;14.85;;;8.40;99.90;;;;;;4944992;28;20043;-86
2024/02/02 11:09:36;;;;;;;36.05;15.27;;;8.50;99.90;;;;;;4932739;28;20411;-86
2024/02/02 11:12:29;;;;;;;29.42;14.30;;;8.50;99.90;;;;;;4932006;28;20050;-88
2024/02/02 11:15:07;;;;;;;34.33;18.20;;;8.50;99.90;;;;;;4931210;28;20491;-85
2024/02/02 11:17:49;;;;;;;27.95;15.07;;;8.50;99.90;;;;;;4947621;28;20046;-88
2024/02/02 11:20:39;;;;;;;29.50;14.75;;;8.50;99.90;;;;;;4950112;28;20031;-88
2024/02/02 11:23:20;;;;;;;32.78;15.05;;;8.50;99.90;;;;;;4962914;28;20039;-87
2024/02/02 11:26:21;;;;;;;41.83;17.83;;;8.60;99.90;;;;;;4966333;28;20042;-85
2024/02/02 11:28:56;;;;;;;44.88;19.63;;;8.60;99.90;;;;;;4948449;28;20043;-86
2024/02/02 11:31:35;;;;;;;34.13;16.80;;;8.60;99.90;;;;;;4950573;28;20451;-83
2024/02/02 11:34:23;;;;;;;36.25;18.85;;;8.70;99.90;;;;;;4949063;28;20047;-85
2024/02/02 11:37:12;;;;;;;37.95;18.38;;;8.70;99.90;;;;;;4964253;28;20419;-85
2024/02/02 11:39:59;;;;;;;29.27;18.15;;;8.70;99.90;;;;;;4951131;28;20054;-82
2024/02/02 11:42:28;;;;;;;33.17;16.77;;;8.80;99.90;;;;;;4933452;28;20035;-85
2024/02/02 11:44:57;;;;;;;33.53;17.63;;;8.80;99.90;;;;;;4934323;28;20036;-85
2024/02/02 11:47:24;;;;;;;39.63;19.13;;;8.80;99.90;;;;;;4946703;28;20483;-86
2024/02/02 11:50:05;;;;;;;36.35;18.42;;;8.80;99.90;;;;;;4962221;28;20031;-87
2024/02/02 11:52:40;;;;;;;36.35;19.23;;;8.80;99.90;;;;;;4978975;28;20039;-82
2024/02/02 11:55:22;;;;;;;39.00;20.17;;;8.80;99.90;;;;;;4959794;28;20039;-83
2024/02/02 11:58:11;;;;;;;42.88;19.77;;;8.90;99.90;;;;;;4945932;28;20510;-84
2024/02/02 12:00:53;;;;;;;36.85;16.27;;;8.80;99.90;;;;;;4960094;28;20070;-83
2024/02/02 12:03:40;;;;;;;35.60;16.88;;;8.80;99.90;;;;;;4961240;28;20059;-84
2024/02/02 12:06:12;;;;;;;33.08;17.63;;;8.80;99.90;;;;;;4962539;28;20059;-84
2024/02/02 12:08:50;;;;;;;35.55;16.88;;;8.80;99.90;;;;;;4948559;28;20043;-84
2024/02/02 12:11:18;;;;;;;30.67;15.95;;;8.80;99.90;;;;;;4949837;28;20388;-86
2024/02/02 12:13:46;;;;;;;37.92;17.88;;;8.80;99.90;;;;;;4966673;28;20059;-85
2024/02/02 12:16:14;;;;;;;35.13;16.48;;;8.80;99.90;;;;;;4952991;28;20618;-84
2024/02/02 12:18:41;;;;;;;30.90;14.90;;;8.80;99.90;;;;;;4954753;28;20057;-86
2024/02/02 12:21:15;;;;;;;33.00;16.48;;;8.80;99.90;;;;;;4953049;28;20402;-84
2024/02/02 12:23:44;;;;;;;35.33;16.02;;;8.70;99.90;;;;;;4951715;28;20043;-84
2024/02/02 12:26:11;;;;;;;31.30;16.10;;;8.70;99.90;;;;;;4967356;28;20046;-84
2024/02/02 12:28:37;;;;;;;29.83;15.70;;;8.70;99.90;;;;;;4953805;28;20057;-83
2024/02/02 12:31:04;;;;;;;34.80;17.67;;;8.70;99.90;;;;;;4981882;28;20043;-87
2024/02/02 12:33:31;;;;;;;35.47;18.27;;;8.70;99.90;;;;;;4934469;28;20506;-84
2024/02/02 12:35:58;;;;;;;37.20;16.70;;;8.70;99.90;;;;;;4966925;28;20031;-84
2024/02/02 12:38:25;;;;;;;44.63;18.50;;;8.70;99.90;;;;;;4935613;28;20039;-85
2024/02/02 12:40:51;;;;;;;47.20;19.85;;;8.70;99.90;;;;;;4937024;28;20450;-84
2024/02/02 12:43:26;;;;;;;34.22;16.60;;;8.70;99.90;;;;;;4951430;28;20135;-86
2024/02/02 12:45:53;;;;;;;36.28;16.45;;;8.70;99.90;;;;;;4953010;28;20035;-84
2024/02/02 12:48:20;;;;;;;33.97;16.42;;;8.70;99.90;;;;;;4968568;28;20035;-86
2024/02/02 12:50:49;;;;;;;40.00;19.00;;;8.70;99.90;;;;;;4965842;28;20370;-86
2024/02/02 12:53:16;;;;;;;45.20;21.27;;;8.70;99.90;;;;;;4950440;28;20398;-87
2024/02/02 12:55:46;;;;;;;35.15;17.83;;;8.70;99.90;;;;;;4950602;28;20038;-85
2024/02/02 12:58:12;;;;;;;36.40;18.70;;;8.70;99.90;;;;;;4983577;28;20042;-86
2024/02/02 13:00:40;;;;;;;37.10;18.92;;;8.70;99.90;;;;;;4965800;28;20043;-85